Terminal Aerodrome Forecast
Issued by NWS

Home | Current Version | Previous Version | Text Only | Print | Product List | Glossary On
Versions: 1 2 3 4 5 6 7 8 9 10 11 12
076
FTUS42 KTBW 241733
TAFLAL
TAF
KLAL 241733Z 2418/2518 07008KT P6SM VCTS SCT045CB SCT100
     FM250100 09005KT P6SM SCT050 SCT100
     FM250500 VRB04KT P6SM FEW050
     FM251400 08008KT P6SM SCT035=

USA.gov is the U.S. government's official web portal to all federal, state and local government web resources and services.